sensor_id;sensor_type;location;lat;lon;timestamp;temperature;humidity
37456;DHT22;23316;50.718;7.328;2023-07-31T00:00:50;21.50;51.20
37456;DHT22;23316;50.718;7.328;2023-07-31T00:03:17;21.50;51.20
37456;DHT22;23316;50.718;7.328;2023-07-31T00:05:44;21.50;51.30
37456;DHT22;23316;50.718;7.328;2023-07-31T00:08:13;21.50;51.30
37456;DHT22;23316;50.718;7.328;2023-07-31T00:10:40;21.50;51.40
37456;DHT22;23316;50.718;7.328;2023-07-31T00:13:07;21.50;51.40
37456;DHT22;23316;50.718;7.328;2023-07-31T00:15:35;21.50;51.40
37456;DHT22;23316;50.718;7.328;2023-07-31T00:18:02;21.50;51.40
37456;DHT22;23316;50.718;7.328;2023-07-31T00:20:29;21.50;51.50
37456;DHT22;23316;50.718;7.328;2023-07-31T00:22:56;21.50;51.50
37456;DHT22;23316;50.718;7.328;2023-07-31T00:25:25;21.50;51.50
37456;DHT22;23316;50.718;7.328;2023-07-31T00:27:52;21.50;51.60
37456;DHT22;23316;50.718;7.328;2023-07-31T00:30:19;21.50;51.60
37456;DHT22;23316;50.718;7.328;2023-07-31T00:32:48;21.50;51.60
37456;DHT22;23316;50.718;7.328;2023-07-31T00:35:15;21.60;51.60
37456;DHT22;23316;50.718;7.328;2023-07-31T00:37:42;21.50;51.60
37456;DHT22;23316;50.718;7.328;2023-07-31T00:40:10;21.60;51.70
37456;DHT22;23316;50.718;7.328;2023-07-31T00:42:38;21.50;51.60
37456;DHT22;23316;50.718;7.328;2023-07-31T00:45:06;21.50;51.70
37456;DHT22;23316;50.718;7.328;2023-07-31T00:47:33;21.60;51.80
37456;DHT22;23316;50.718;7.328;2023-07-31T00:50:01;21.60;51.80
37456;DHT22;23316;50.718;7.328;2023-07-31T00:52:28;21.50;51.80
37456;DHT22;23316;50.718;7.328;2023-07-31T00:54:55;21.60;51.90
37456;DHT22;23316;50.718;7.328;2023-07-31T00:57:22;21.60;51.80
37456;DHT22;23316;50.718;7.328;2023-07-31T00:59:51;21.60;51.90
37456;DHT22;23316;50.718;7.328;2023-07-31T01:02:18;21.60;51.80
37456;DHT22;23316;50.718;7.328;2023-07-31T01:04:46;21.60;51.90
37456;DHT22;23316;50.718;7.328;2023-07-31T01:07:18;21.60;51.90
37456;DHT22;23316;50.718;7.328;2023-07-31T01:09:55;21.60;52.00
37456;DHT22;23316;50.718;7.328;2023-07-31T01:12:24;21.50;52.00
37456;DHT22;23316;50.718;7.328;2023-07-31T01:15:02;21.60;52.10
37456;DHT22;23316;50.718;7.328;2023-07-31T01:17:29;21.60;52.20
37456;DHT22;23316;50.718;7.328;2023-07-31T01:19:59;21.60;52.10
37456;DHT22;23316;50.718;7.328;2023-07-31T01:22:38;21.60;52.10
37456;DHT22;23316;50.718;7.328;2023-07-31T01:25:20;21.60;52.20
37456;DHT22;23316;50.718;7.328;2023-07-31T01:27:57;21.60;52.20
37456;DHT22;23316;50.718;7.328;2023-07-31T01:30:29;21.60;52.20
37456;DHT22;23316;50.718;7.328;2023-07-31T01:33:00;21.60;52.20
37456;DHT22;23316;50.718;7.328;2023-07-31T01:35:32;21.60;52.20
37456;DHT22;23316;50.718;7.328;2023-07-31T01:38:00;21.60;52.20
37456;DHT22;23316;50.718;7.328;2023-07-31T01:40:28;21.60;52.30
37456;DHT22;23316;50.718;7.328;2023-07-31T01:42:57;21.60;52.40
37456;DHT22;23316;50.718;7.328;2023-07-31T01:45:24;21.60;52.60
37456;DHT22;23316;50.718;7.328;2023-07-31T01:47:51;21.60;52.80
37456;DHT22;23316;50.718;7.328;2023-07-31T01:50:19;21.60;53.10
37456;DHT22;23316;50.718;7.328;2023-07-31T01:52:46;21.60;53.10
37456;DHT22;23316;50.718;7.328;2023-07-31T01:55:13;21.50;53.20
37456;DHT22;23316;50.718;7.328;2023-07-31T01:57:40;21.50;53.30
37456;DHT22;23316;50.718;7.328;2023-07-31T02:00:10;21.50;53.30
37456;DHT22;23316;50.718;7.328;2023-07-31T02:02:37;21.50;53.30
37456;DHT22;23316;50.718;7.328;2023-07-31T02:05:05;21.50;53.40
37456;DHT22;23316;50.718;7.328;2023-07-31T02:07:33;21.50;53.40
37456;DHT22;23316;50.718;7.328;2023-07-31T02:10:00;21.40;53.50
37456;DHT22;23316;50.718;7.328;2023-07-31T02:12:27;21.40;53.60
37456;DHT22;23316;50.718;7.328;2023-07-31T02:14:56;21.40;53.70
37456;DHT22;23316;50.718;7.328;2023-07-31T02:17:25;21.40;53.70
37456;DHT22;23316;50.718;7.328;2023-07-31T02:19:52;21.40;53.80
37456;DHT22;23316;50.718;7.328;2023-07-31T02:22:20;21.30;53.60
37456;DHT22;23316;50.718;7.328;2023-07-31T02:24:47;21.40;53.60
37456;DHT22;23316;50.718;7.328;2023-07-31T02:27:14;21.30;54.20
37456;DHT22;23316;50.718;7.328;2023-07-31T02:29:42;21.40;53.70
37456;DHT22;23316;50.718;7.328;2023-07-31T02:32:09;21.30;53.70
37456;DHT22;23316;50.718;7.328;2023-07-31T02:34:38;21.30;53.60
37456;DHT22;23316;50.718;7.328;2023-07-31T02:37:05;21.30;53.60
37456;DHT22;23316;50.718;7.328;2023-07-31T02:39:33;21.30;53.60
37456;DHT22;23316;50.718;7.328;2023-07-31T02:42:00;21.30;53.60
37456;DHT22;23316;50.718;7.328;2023-07-31T02:44:27;21.30;53.60
37456;DHT22;23316;50.718;7.328;2023-07-31T02:46:54;21.30;53.70
37456;DHT22;23316;50.718;7.328;2023-07-31T02:49:22;21.30;53.60
37456;DHT22;23316;50.718;7.328;2023-07-31T02:51:50;21.30;53.60
37456;DHT22;23316;50.718;7.328;2023-07-31T02:54:18;21.30;53.60
37456;DHT22;23316;50.718;7.328;2023-07-31T02:56:46;21.30;53.50
37456;DHT22;23316;50.718;7.328;2023-07-31T02:59:14;21.30;53.50
37456;DHT22;23316;50.718;7.328;2023-07-31T03:01:41;21.40;53.50
37456;DHT22;23316;50.718;7.328;2023-07-31T03:04:09;21.30;53.50
37456;DHT22;23316;50.718;7.328;2023-07-31T03:06:36;21.30;53.40
37456;DHT22;23316;50.718;7.328;2023-07-31T03:09:05;21.30;53.40
37456;DHT22;23316;50.718;7.328;2023-07-31T03:11:32;21.30;53.30
37456;DHT22;23316;50.718;7.328;2023-07-31T03:13:59;21.30;53.20
37456;DHT22;23316;50.718;7.328;2023-07-31T03:16:27;21.30;53.20
37456;DHT22;23316;50.718;7.328;2023-07-31T03:18:54;21.30;53.20
37456;DHT22;23316;50.718;7.328;2023-07-31T03:21:21;21.30;53.20
37456;DHT22;23316;50.718;7.328;2023-07-31T03:23:49;21.30;53.10
37456;DHT22;23316;50.718;7.328;2023-07-31T03:26:17;21.30;53.10
37456;DHT22;23316;50.718;7.328;2023-07-31T03:28:45;21.30;53.10
37456;DHT22;23316;50.718;7.328;2023-07-31T03:31:12;21.30;53.00
37456;DHT22;23316;50.718;7.328;2023-07-31T03:33:39;21.40;53.10
37456;DHT22;23316;50.718;7.328;2023-07-31T03:36:07;21.30;53.00
37456;DHT22;23316;50.718;7.328;2023-07-31T03:38:34;21.30;53.00
37456;DHT22;23316;50.718;7.328;2023-07-31T03:41:02;21.30;53.00
37456;DHT22;23316;50.718;7.328;2023-07-31T03:43:33;21.30;52.90
37456;DHT22;23316;50.718;7.328;2023-07-31T03:46:00;21.30;52.80
37456;DHT22;23316;50.718;7.328;2023-07-31T03:48:28;21.40;52.80
37456;DHT22;23316;50.718;7.328;2023-07-31T03:50:55;21.30;52.70
37456;DHT22;23316;50.718;7.328;2023-07-31T03:53:23;21.40;52.70
37456;DHT22;23316;50.718;7.328;2023-07-31T03:55:50;21.40;52.70
37456;DHT22;23316;50.718;7.328;2023-07-31T03:58:17;21.40;52.70
37456;DHT22;23316;50.718;7.328;2023-07-31T04:00:47;21.40;52.70
37456;DHT22;23316;50.718;7.328;2023-07-31T04:03:14;21.40;52.70
37456;DHT22;23316;50.718;7.328;2023-07-31T04:05:42;21.40;52.70
37456;DHT22;23316;50.718;7.328;2023-07-31T04:08:09;21.40;52.70
37456;DHT22;23316;50.718;7.328;2023-07-31T04:10:36;21.40;52.80
37456;DHT22;23316;50.718;7.328;2023-07-31T04:13:04;21.40;52.80
37456;DHT22;23316;50.718;7.328;2023-07-31T04:15:31;21.40;52.60
37456;DHT22;23316;50.718;7.328;2023-07-31T04:18:00;21.40;52.60
37456;DHT22;23316;50.718;7.328;2023-07-31T04:20:27;21.40;52.70
37456;DHT22;23316;50.718;7.328;2023-07-31T04:22:54;21.40;52.60
37456;DHT22;23316;50.718;7.328;2023-07-31T04:25:21;21.40;52.60
37456;DHT22;23316;50.718;7.328;2023-07-31T04:27:49;21.40;52.60
37456;DHT22;23316;50.718;7.328;2023-07-31T04:30:16;21.40;52.60
37456;DHT22;23316;50.718;7.328;2023-07-31T04:32:43;21.40;52.50
37456;DHT22;23316;50.718;7.328;2023-07-31T04:35:12;21.40;52.60
37456;DHT22;23316;50.718;7.328;2023-07-31T04:37:39;21.40;52.60
37456;DHT22;23316;50.718;7.328;2023-07-31T04:40:08;21.40;52.60
37456;DHT22;23316;50.718;7.328;2023-07-31T04:42:35;21.40;52.50
37456;DHT22;23316;50.718;7.328;2023-07-31T04:45:03;21.40;52.50
37456;DHT22;23316;50.718;7.328;2023-07-31T04:47:31;21.40;52.60
37456;DHT22;23316;50.718;7.328;2023-07-31T04:49:58;21.40;52.60
37456;DHT22;23316;50.718;7.328;2023-07-31T04:52:26;21.40;52.60
37456;DHT22;23316;50.718;7.328;2023-07-31T04:54:54;21.40;52.50
37456;DHT22;23316;50.718;7.328;2023-07-31T04:57:21;21.40;52.50
37456;DHT22;23316;50.718;7.328;2023-07-31T04:59:48;21.40;52.60
37456;DHT22;23316;50.718;7.328;2023-07-31T05:02:16;21.40;52.80
37456;DHT22;23316;50.718;7.328;2023-07-31T05:04:43;21.40;52.60
37456;DHT22;23316;50.718;7.328;2023-07-31T05:07:10;21.40;52.50
37456;DHT22;23316;50.718;7.328;2023-07-31T05:09:39;21.40;52.60
37456;DHT22;23316;50.718;7.328;2023-07-31T05:12:07;21.40;52.70
37456;DHT22;23316;50.718;7.328;2023-07-31T05:14:35;21.50;52.70
37456;DHT22;23316;50.718;7.328;2023-07-31T05:17:04;21.50;52.80
37456;DHT22;23316;50.718;7.328;2023-07-31T05:19:32;21.50;52.80
37456;DHT22;23316;50.718;7.328;2023-07-31T05:21:59;21.40;52.80
37456;DHT22;23316;50.718;7.328;2023-07-31T05:24:26;21.50;52.90
37456;DHT22;23316;50.718;7.328;2023-07-31T05:26:55;21.50;52.90
37456;DHT22;23316;50.718;7.328;2023-07-31T05:29:22;21.50;52.90
37456;DHT22;23316;50.718;7.328;2023-07-31T05:31:50;21.50;53.00
37456;DHT22;23316;50.718;7.328;2023-07-31T05:34:17;21.50;53.00
37456;DHT22;23316;50.718;7.328;2023-07-31T05:36:44;21.50;53.10
37456;DHT22;23316;50.718;7.328;2023-07-31T05:39:11;21.50;53.10
37456;DHT22;23316;50.718;7.328;2023-07-31T05:41:39;21.60;53.20
37456;DHT22;23316;50.718;7.328;2023-07-31T05:44:07;21.50;53.20
37456;DHT22;23316;50.718;7.328;2023-07-31T05:46:35;21.60;53.30
37456;DHT22;23316;50.718;7.328;2023-07-31T05:49:02;21.60;53.30
37456;DHT22;23316;50.718;7.328;2023-07-31T05:51:29;21.60;53.30
37456;DHT22;23316;50.718;7.328;2023-07-31T05:53:56;21.60;53.30
37456;DHT22;23316;50.718;7.328;2023-07-31T05:56:24;21.70;53.30
37456;DHT22;23316;50.718;7.328;2023-07-31T05:58:53;21.60;53.30
37456;DHT22;23316;50.718;7.328;2023-07-31T06:01:21;21.70;53.40
37456;DHT22;23316;50.718;7.328;2023-07-31T06:03:48;21.70;53.40
37456;DHT22;23316;50.718;7.328;2023-07-31T06:06:16;21.70;53.50
37456;DHT22;23316;50.718;7.328;2023-07-31T06:08:43;21.70;53.50
37456;DHT22;23316;50.718;7.328;2023-07-31T06:11:10;21.70;53.50
37456;DHT22;23316;50.718;7.328;2023-07-31T06:13:38;21.70;53.40
37456;DHT22;23316;50.718;7.328;2023-07-31T06:16:05;21.70;53.40
37456;DHT22;23316;50.718;7.328;2023-07-31T06:18:33;21.80;53.40
37456;DHT22;23316;50.718;7.328;2023-07-31T06:21:01;21.70;53.30
37456;DHT22;23316;50.718;7.328;2023-07-31T06:23:28;21.80;53.40
37456;DHT22;23316;50.718;7.328;2023-07-31T06:25:55;21.70;53.80
37456;DHT22;23316;50.718;7.328;2023-07-31T06:28:27;21.80;54.00
37456;DHT22;23316;50.718;7.328;2023-07-31T06:30:55;21.80;54.10
37456;DHT22;23316;50.718;7.328;2023-07-31T06:33:22;21.70;54.00
37456;DHT22;23316;50.718;7.328;2023-07-31T06:35:51;21.80;54.70
37456;DHT22;23316;50.718;7.328;2023-07-31T06:38:21;21.80;54.40
37456;DHT22;23316;50.718;7.328;2023-07-31T06:40:49;21.70;54.40
37456;DHT22;23316;50.718;7.328;2023-07-31T06:43:16;21.70;54.40
37456;DHT22;23316;50.718;7.328;2023-07-31T06:45:43;21.70;54.60
37456;DHT22;23316;50.718;7.328;2023-07-31T06:48:11;21.70;54.80
37456;DHT22;23316;50.718;7.328;2023-07-31T06:50:39;21.70;54.90
37456;DHT22;23316;50.718;7.328;2023-07-31T06:53:07;21.70;55.10
37456;DHT22;23316;50.718;7.328;2023-07-31T06:55:35;21.70;55.20
37456;DHT22;23316;50.718;7.328;2023-07-31T06:58:02;21.70;55.30
37456;DHT22;23316;50.718;7.328;2023-07-31T07:00:29;21.70;55.50
37456;DHT22;23316;50.718;7.328;2023-07-31T07:02:57;21.60;55.60
37456;DHT22;23316;50.718;7.328;2023-07-31T07:05:24;21.70;55.80
37456;DHT22;23316;50.718;7.328;2023-07-31T07:07:51;21.60;55.80
37456;DHT22;23316;50.718;7.328;2023-07-31T07:10:20;21.70;56.00
37456;DHT22;23316;50.718;7.328;2023-07-31T07:12:48;21.70;56.00
37456;DHT22;23316;50.718;7.328;2023-07-31T07:15:15;21.70;56.10
37456;DHT22;23316;50.718;7.328;2023-07-31T07:17:43;21.70;56.20
37456;DHT22;23316;50.718;7.328;2023-07-31T07:20:10;21.60;56.20
37456;DHT22;23316;50.718;7.328;2023-07-31T07:22:38;21.60;56.30
37456;DHT22;23316;50.718;7.328;2023-07-31T07:25:06;21.70;56.30
37456;DHT22;23316;50.718;7.328;2023-07-31T07:27:35;21.70;56.50
37456;DHT22;23316;50.718;7.328;2023-07-31T07:30:03;21.70;56.70
37456;DHT22;23316;50.718;7.328;2023-07-31T07:32:30;21.70;56.80
37456;DHT22;23316;50.718;7.328;2023-07-31T07:34:58;21.80;56.80
37456;DHT22;23316;50.718;7.328;2023-07-31T07:37:25;21.80;56.70
37456;DHT22;23316;50.718;7.328;2023-07-31T07:39:52;21.80;56.70
37456;DHT22;23316;50.718;7.328;2023-07-31T07:42:19;21.80;56.50
37456;DHT22;23316;50.718;7.328;2023-07-31T07:44:48;21.90;56.40
37456;DHT22;23316;50.718;7.328;2023-07-31T07:47:15;21.90;56.20
37456;DHT22;23316;50.718;7.328;2023-07-31T07:49:43;21.90;56.10
37456;DHT22;23316;50.718;7.328;2023-07-31T07:52:10;21.90;56.00
37456;DHT22;23316;50.718;7.328;2023-07-31T07:54:37;22.00;55.90
37456;DHT22;23316;50.718;7.328;2023-07-31T07:57:05;22.00;55.70
37456;DHT22;23316;50.718;7.328;2023-07-31T07:59:32;21.90;55.60
37456;DHT22;23316;50.718;7.328;2023-07-31T08:02:01;21.90;55.70
37456;DHT22;23316;50.718;7.328;2023-07-31T08:04:28;21.90;55.70
37456;DHT22;23316;50.718;7.328;2023-07-31T08:06:55;22.00;55.90
37456;DHT22;23316;50.718;7.328;2023-07-31T08:09:22;21.90;56.20
37456;DHT22;23316;50.718;7.328;2023-07-31T08:11:50;21.90;56.20
37456;DHT22;23316;50.718;7.328;2023-07-31T08:14:17;21.90;56.40
37456;DHT22;23316;50.718;7.328;2023-07-31T08:16:44;21.90;56.50
37456;DHT22;23316;50.718;7.328;2023-07-31T08:19:13;21.90;56.50
37456;DHT22;23316;50.718;7.328;2023-07-31T08:21:40;21.90;56.60
37456;DHT22;23316;50.718;7.328;2023-07-31T08:24:07;21.90;56.60
37456;DHT22;23316;50.718;7.328;2023-07-31T08:26:35;21.90;56.60
37456;DHT22;23316;50.718;7.328;2023-07-31T08:29:02;21.90;56.70
37456;DHT22;23316;50.718;7.328;2023-07-31T08:31:29;21.90;56.70
37456;DHT22;23316;50.718;7.328;2023-07-31T08:33:57;21.90;56.80
37456;DHT22;23316;50.718;7.328;2023-07-31T08:36:25;21.80;56.90
37456;DHT22;23316;50.718;7.328;2023-07-31T08:38:53;21.80;57.10
37456;DHT22;23316;50.718;7.328;2023-07-31T08:41:20;21.80;57.10
37456;DHT22;23316;50.718;7.328;2023-07-31T08:43:49;21.90;57.40
37456;DHT22;23316;50.718;7.328;2023-07-31T08:46:17;21.80;57.50
37456;DHT22;23316;50.718;7.328;2023-07-31T08:48:45;21.90;57.60
37456;DHT22;23316;50.718;7.328;2023-07-31T08:51:14;21.90;57.60
37456;DHT22;23316;50.718;7.328;2023-07-31T08:53:43;21.90;57.60
37456;DHT22;23316;50.718;7.328;2023-07-31T08:56:11;21.90;57.70
37456;DHT22;23316;50.718;7.328;2023-07-31T08:58:41;21.90;57.60
37456;DHT22;23316;50.718;7.328;2023-07-31T09:01:08;22.00;57.60
37456;DHT22;23316;50.718;7.328;2023-07-31T09:03:38;22.00;57.60
37456;DHT22;23316;50.718;7.328;2023-07-31T09:06:06;22.00;57.50
37456;DHT22;23316;50.718;7.328;2023-07-31T09:08:34;22.00;57.50
37456;DHT22;23316;50.718;7.328;2023-07-31T09:11:03;22.00;57.40
37456;DHT22;23316;50.718;7.328;2023-07-31T09:13:31;22.00;57.40
37456;DHT22;23316;50.718;7.328;2023-07-31T09:15:59;22.00;57.40
37456;DHT22;23316;50.718;7.328;2023-07-31T09:18:26;22.00;57.40
37456;DHT22;23316;50.718;7.328;2023-07-31T09:21:03;22.00;57.40
37456;DHT22;23316;50.718;7.328;2023-07-31T09:23:44;22.00;57.60
37456;DHT22;23316;50.718;7.328;2023-07-31T09:26:29;22.00;57.50
37456;DHT22;23316;50.718;7.328;2023-07-31T09:28:56;22.00;57.50
37456;DHT22;23316;50.718;7.328;2023-07-31T09:31:32;22.00;57.40
37456;DHT22;23316;50.718;7.328;2023-07-31T09:34:00;22.00;57.60
37456;DHT22;23316;50.718;7.328;2023-07-31T09:36:29;22.10;57.60
37456;DHT22;23316;50.718;7.328;2023-07-31T09:39:02;22.10;57.70
37456;DHT22;23316;50.718;7.328;2023-07-31T09:41:31;22.00;57.70
37456;DHT22;23316;50.718;7.328;2023-07-31T09:44:03;22.10;57.70
37456;DHT22;23316;50.718;7.328;2023-07-31T09:46:30;22.10;57.60
37456;DHT22;23316;50.718;7.328;2023-07-31T09:49:08;22.00;57.60
37456;DHT22;23316;50.718;7.328;2023-07-31T09:51:36;22.00;57.70
37456;DHT22;23316;50.718;7.328;2023-07-31T09:54:09;22.10;58.20
37456;DHT22;23316;50.718;7.328;2023-07-31T09:56:42;22.10;57.70
37456;DHT22;23316;50.718;7.328;2023-07-31T09:59:11;22.10;57.70
37456;DHT22;23316;50.718;7.328;2023-07-31T10:01:40;22.10;57.70
37456;DHT22;23316;50.718;7.328;2023-07-31T10:04:11;22.10;57.80
37456;DHT22;23316;50.718;7.328;2023-07-31T10:06:39;22.10;57.80
37456;DHT22;23316;50.718;7.328;2023-07-31T10:09:08;22.10;57.90
37456;DHT22;23316;50.718;7.328;2023-07-31T10:11:41;22.10;57.90
37456;DHT22;23316;50.718;7.328;2023-07-31T10:14:10;22.10;57.90
37456;DHT22;23316;50.718;7.328;2023-07-31T10:16:38;22.10;57.80
37456;DHT22;23316;50.718;7.328;2023-07-31T10:19:06;22.10;57.80
37456;DHT22;23316;50.718;7.328;2023-07-31T10:21:35;22.10;58.20
37456;DHT22;23316;50.718;7.328;2023-07-31T10:24:04;22.20;58.10
37456;DHT22;23316;50.718;7.328;2023-07-31T10:26:32;22.20;58.20
37456;DHT22;23316;50.718;7.328;2023-07-31T10:29:01;22.20;58.20
37456;DHT22;23316;50.718;7.328;2023-07-31T10:31:29;22.20;58.20
37456;DHT22;23316;50.718;7.328;2023-07-31T10:33:57;22.20;58.00
37456;DHT22;23316;50.718;7.328;2023-07-31T10:36:26;22.30;58.00
37456;DHT22;23316;50.718;7.328;2023-07-31T10:38:55;22.30;58.00
37456;DHT22;23316;50.718;7.328;2023-07-31T10:41:29;22.30;58.00
37456;DHT22;23316;50.718;7.328;2023-07-31T10:44:01;22.30;58.10
37456;DHT22;23316;50.718;7.328;2023-07-31T10:46:29;22.30;58.60
37456;DHT22;23316;50.718;7.328;2023-07-31T10:49:00;22.30;57.90
37456;DHT22;23316;50.718;7.328;2023-07-31T10:51:34;22.30;57.90
37456;DHT22;23316;50.718;7.328;2023-07-31T10:54:11;22.30;58.10
37456;DHT22;23316;50.718;7.328;2023-07-31T10:56:39;22.40;58.30
37456;DHT22;23316;50.718;7.328;2023-07-31T10:59:08;22.40;58.40
37456;DHT22;23316;50.718;7.328;2023-07-31T11:01:51;22.40;58.50
37456;DHT22;23316;50.718;7.328;2023-07-31T11:04:22;22.50;58.70
37456;DHT22;23316;50.718;7.328;2023-07-31T11:06:57;22.50;58.30
37456;DHT22;23316;50.718;7.328;2023-07-31T11:09:24;22.60;58.30
37456;DHT22;23316;50.718;7.328;2023-07-31T11:11:54;22.60;58.20
37456;DHT22;23316;50.718;7.328;2023-07-31T11:14:23;22.70;57.90
37456;DHT22;23316;50.718;7.328;2023-07-31T11:16:50;22.70;57.70
37456;DHT22;23316;50.718;7.328;2023-07-31T11:19:22;22.70;57.60
37456;DHT22;23316;50.718;7.328;2023-07-31T11:21:50;22.70;57.60
37456;DHT22;23316;50.718;7.328;2023-07-31T11:24:19;22.80;57.30
37456;DHT22;23316;50.718;7.328;2023-07-31T11:26:50;22.70;57.10
37456;DHT22;23316;50.718;7.328;2023-07-31T11:29:17;22.80;56.80
37456;DHT22;23316;50.718;7.328;2023-07-31T11:31:47;22.80;56.70
37456;DHT22;23316;50.718;7.328;2023-07-31T11:34:15;22.70;56.10
37456;DHT22;23316;50.718;7.328;2023-07-31T11:36:52;22.80;55.90
37456;DHT22;23316;50.718;7.328;2023-07-31T11:39:20;22.80;55.60
37456;DHT22;23316;50.718;7.328;2023-07-31T11:41:48;22.80;55.40
37456;DHT22;23316;50.718;7.328;2023-07-31T11:44:15;22.80;55.40
37456;DHT22;23316;50.718;7.328;2023-07-31T11:46:43;22.80;55.70
37456;DHT22;23316;50.718;7.328;2023-07-31T11:49:12;22.80;55.40
37456;DHT22;23316;50.718;7.328;2023-07-31T11:51:39;22.80;55.00
37456;DHT22;23316;50.718;7.328;2023-07-31T11:54:07;22.80;55.00
37456;DHT22;23316;50.718;7.328;2023-07-31T11:56:35;22.80;55.00
37456;DHT22;23316;50.718;7.328;2023-07-31T11:59:02;22.80;55.20
37456;DHT22;23316;50.718;7.328;2023-07-31T12:01:32;22.80;55.50
37456;DHT22;23316;50.718;7.328;2023-07-31T12:03:59;22.90;55.80
37456;DHT22;23316;50.718;7.328;2023-07-31T12:06:34;22.80;55.90
37456;DHT22;23316;50.718;7.328;2023-07-31T12:09:03;22.90;56.20
37456;DHT22;23316;50.718;7.328;2023-07-31T12:11:31;22.90;56.30
37456;DHT22;23316;50.718;7.328;2023-07-31T12:13:58;23.00;56.60
37456;DHT22;23316;50.718;7.328;2023-07-31T12:16:26;23.00;56.60
37456;DHT22;23316;50.718;7.328;2023-07-31T12:18:55;23.10;56.70
37456;DHT22;23316;50.718;7.328;2023-07-31T12:21:22;23.10;56.70
37456;DHT22;23316;50.718;7.328;2023-07-31T12:23:51;23.20;56.90
37456;DHT22;23316;50.718;7.328;2023-07-31T12:26:19;23.20;57.00
37456;DHT22;23316;50.718;7.328;2023-07-31T12:28:48;23.30;56.90
37456;DHT22;23316;50.718;7.328;2023-07-31T12:31:17;23.30;56.80
37456;DHT22;23316;50.718;7.328;2023-07-31T12:33:46;23.40;56.20
37456;DHT22;23316;50.718;7.328;2023-07-31T12:36:14;23.50;56.10
37456;DHT22;23316;50.718;7.328;2023-07-31T12:38:42;23.60;55.70
37456;DHT22;23316;50.718;7.328;2023-07-31T12:41:11;23.60;55.30
37456;DHT22;23316;50.718;7.328;2023-07-31T12:43:40;23.60;54.90
37456;DHT22;23316;50.718;7.328;2023-07-31T12:46:08;23.70;54.40
37456;DHT22;23316;50.718;7.328;2023-07-31T12:48:37;23.70;54.30
37456;DHT22;23316;50.718;7.328;2023-07-31T12:51:05;23.70;54.00
37456;DHT22;23316;50.718;7.328;2023-07-31T12:53:33;23.70;53.60
37456;DHT22;23316;50.718;7.328;2023-07-31T12:56:01;23.70;53.50
37456;DHT22;23316;50.718;7.328;2023-07-31T12:58:30;23.70;53.40
37456;DHT22;23316;50.718;7.328;2023-07-31T13:00:58;23.70;53.20
37456;DHT22;23316;50.718;7.328;2023-07-31T13:03:29;23.70;53.30
37456;DHT22;23316;50.718;7.328;2023-07-31T13:05:57;23.70;53.20
37456;DHT22;23316;50.718;7.328;2023-07-31T13:08:25;23.70;53.10
37456;DHT22;23316;50.718;7.328;2023-07-31T13:10:53;23.60;52.90
37456;DHT22;23316;50.718;7.328;2023-07-31T13:13:21;23.60;53.00
37456;DHT22;23316;50.718;7.328;2023-07-31T13:15:49;23.60;52.80
37456;DHT22;23316;50.718;7.328;2023-07-31T13:18:17;23.60;52.90
37456;DHT22;23316;50.718;7.328;2023-07-31T13:20:44;23.60;52.90
37456;DHT22;23316;50.718;7.328;2023-07-31T13:23:12;23.50;53.00
37456;DHT22;23316;50.718;7.328;2023-07-31T13:25:41;23.60;53.10
37456;DHT22;23316;50.718;7.328;2023-07-31T13:28:09;23.50;53.10
37456;DHT22;23316;50.718;7.328;2023-07-31T13:30:38;23.50;53.20
37456;DHT22;23316;50.718;7.328;2023-07-31T13:33:07;23.50;53.40
37456;DHT22;23316;50.718;7.328;2023-07-31T13:35:35;23.60;53.50
37456;DHT22;23316;50.718;7.328;2023-07-31T13:38:04;23.60;53.30
37456;DHT22;23316;50.718;7.328;2023-07-31T13:40:33;23.60;53.10
37456;DHT22;23316;50.718;7.328;2023-07-31T13:43:02;23.60;53.00
37456;DHT22;23316;50.718;7.328;2023-07-31T13:45:31;23.60;53.00
37456;DHT22;23316;50.718;7.328;2023-07-31T13:47:59;23.60;52.90
37456;DHT22;23316;50.718;7.328;2023-07-31T13:50:29;23.70;52.90
37456;DHT22;23316;50.718;7.328;2023-07-31T13:52:57;23.60;52.70
37456;DHT22;23316;50.718;7.328;2023-07-31T13:55:26;23.70;52.80
37456;DHT22;23316;50.718;7.328;2023-07-31T13:57:54;23.70;52.60
37456;DHT22;23316;50.718;7.328;2023-07-31T14:00:22;23.70;52.40
37456;DHT22;23316;50.718;7.328;2023-07-31T14:02:50;23.70;52.20
37456;DHT22;23316;50.718;7.328;2023-07-31T14:05:18;23.80;52.40
37456;DHT22;23316;50.718;7.328;2023-07-31T14:07:46;23.80;52.40
37456;DHT22;23316;50.718;7.328;2023-07-31T14:10:14;23.80;52.20
37456;DHT22;23316;50.718;7.328;2023-07-31T14:12:41;23.80;52.00
37456;DHT22;23316;50.718;7.328;2023-07-31T14:15:09;23.90;51.80
37456;DHT22;23316;50.718;7.328;2023-07-31T14:17:37;23.90;51.70
37456;DHT22;23316;50.718;7.328;2023-07-31T14:20:05;24.00;51.70
37456;DHT22;23316;50.718;7.328;2023-07-31T14:22:33;24.00;52.10
37456;DHT22;23316;50.718;7.328;2023-07-31T14:25:02;24.00;52.40
37456;DHT22;23316;50.718;7.328;2023-07-31T14:27:30;24.00;51.60
37456;DHT22;23316;50.718;7.328;2023-07-31T14:29:58;24.10;51.60
37456;DHT22;23316;50.718;7.328;2023-07-31T14:32:25;24.10;51.50
37456;DHT22;23316;50.718;7.328;2023-07-31T14:34:53;24.10;51.50
37456;DHT22;23316;50.718;7.328;2023-07-31T14:37:21;24.10;51.30
37456;DHT22;23316;50.718;7.328;2023-07-31T14:39:48;24.10;51.20
37456;DHT22;23316;50.718;7.328;2023-07-31T14:42:18;24.10;51.20
37456;DHT22;23316;50.718;7.328;2023-07-31T14:44:45;24.10;51.20
37456;DHT22;23316;50.718;7.328;2023-07-31T14:47:13;24.10;51.10
37456;DHT22;23316;50.718;7.328;2023-07-31T14:49:40;24.10;51.00
37456;DHT22;23316;50.718;7.328;2023-07-31T14:52:08;24.10;50.70
37456;DHT22;23316;50.718;7.328;2023-07-31T14:54:35;24.10;50.70
37456;DHT22;23316;50.718;7.328;2023-07-31T14:57:03;24.10;50.60
37456;DHT22;23316;50.718;7.328;2023-07-31T14:59:33;24.00;50.40
37456;DHT22;23316;50.718;7.328;2023-07-31T15:02:00;24.00;50.50
37456;DHT22;23316;50.718;7.328;2023-07-31T15:04:28;24.00;50.60
37456;DHT22;23316;50.718;7.328;2023-07-31T15:06:56;23.90;50.80
37456;DHT22;23316;50.718;7.328;2023-07-31T15:09:25;23.90;50.80
37456;DHT22;23316;50.718;7.328;2023-07-31T15:11:53;23.80;50.60
37456;DHT22;23316;50.718;7.328;2023-07-31T15:14:22;23.80;50.70
37456;DHT22;23316;50.718;7.328;2023-07-31T15:16:59;23.80;51.30
37456;DHT22;23316;50.718;7.328;2023-07-31T15:19:28;23.80;50.90
37456;DHT22;23316;50.718;7.328;2023-07-31T15:21:56;23.70;50.80
37456;DHT22;23316;50.718;7.328;2023-07-31T15:24:24;23.70;50.70
37456;DHT22;23316;50.718;7.328;2023-07-31T15:26:51;23.70;50.70
37456;DHT22;23316;50.718;7.328;2023-07-31T15:29:18;23.70;50.70
37456;DHT22;23316;50.718;7.328;2023-07-31T15:31:46;23.60;50.70
37456;DHT22;23316;50.718;7.328;2023-07-31T15:34:15;23.60;50.60
37456;DHT22;23316;50.718;7.328;2023-07-31T15:36:45;23.60;50.70